Terminal Aerodrome Forecast
Issued by NWS

Home | Current Version | Previous Version | Text Only | Print | Product List | Glossary On
Versions: 1 2 3 4 5 6 7 8 9 10 11 12
000
FTUS43 KAPX 200526
TAFAPN
TAF
KAPN 200526Z 2006/2106 24003KT P6SM FEW250
     FM200900 24006KT P6SM FEW250
     FM201200 22004KT P6SM FEW250 WS015/24030KT
     FM201500 22011G17KT P6SM FEW250
     FM202300 19007KT P6SM FEW250=

USA.gov is the U.S. government's official web portal to all federal, state and local government web resources and services.